Time;durP1;ratioP1;P1;durP2;ratioP2;P2;SDS_P1;SDS_P2;PMS_P1;PMS_P2;Temp;Humidity;BMP_temperature;BMP_pressure;BME280_temperature;BME280_humidity;BME280_pressure;Samples;Min_cycle;Max_cycle;Signal;HPM_P1;HPM_P2
2022/07/14 00:00:59;;;;;;;4.88;2.00;;;23.10;54.00;;;;;;5020054;28;20565;-54
2022/07/14 00:03:26;;;;;;;5.32;2.60;;;23.10;54.10;;;;;;5000267;28;20042;-58
2022/07/14 00:05:55;;;;;;;5.85;2.05;;;23.00;54.10;;;;;;4998520;28;20038;-51
2022/07/14 00:08:26;;;;;;;5.28;1.75;;;23.00;54.20;;;;;;5001687;28;20064;-52
2022/07/14 00:10:55;;;;;;;3.80;1.80;;;23.00;54.40;;;;;;5014690;28;20053;-50
2022/07/14 00:13:22;;;;;;;5.55;2.42;;;23.00;54.20;;;;;;5006539;28;20568;-54
2022/07/14 00:15:53;;;;;;;5.97;1.83;;;23.00;54.20;;;;;;5005273;28;20038;-50
2022/07/14 00:18:27;;;;;;;4.53;1.88;;;23.00;54.30;;;;;;5007072;28;20116;-49
2022/07/14 00:20:54;;;;;;;4.95;2.05;;;22.90;54.40;;;;;;5014545;28;20173;-49
2022/07/14 00:23:21;;;;;;;4.97;2.10;;;22.90;54.60;;;;;;5000240;28;20093;-52
2022/07/14 00:25:51;;;;;;;4.13;1.92;;;22.90;54.60;;;;;;5004040;28;20049;-51
2022/07/14 00:28:18;;;;;;;7.13;2.10;;;22.90;54.80;;;;;;5006022;28;20663;-50
2022/07/14 00:30:51;;;;;;;3.20;1.65;;;22.90;54.60;;;;;;5004450;28;20415;-55
2022/07/14 00:33:20;;;;;;;6.43;2.05;;;22.90;55.00;;;;;;5001778;28;20119;-51
2022/07/14 00:35:47;;;;;;;3.67;1.67;;;22.90;54.80;;;;;;5009711;28;20402;-55
2022/07/14 00:38:14;;;;;;;3.80;2.05;;;22.90;55.00;;;;;;5012781;28;20096;-51
2022/07/14 00:40:43;;;;;;;4.72;1.80;;;22.80;55.10;;;;;;5005357;28;20030;-53
2022/07/14 00:43:12;;;;;;;7.85;2.33;;;22.80;55.20;;;;;;5016974;28;20525;-51
2022/07/14 00:45:48;;;;;;;7.25;2.28;;;22.80;55.10;;;;;;5002138;28;20030;-50
2022/07/14 00:48:19;;;;;;;4.47;1.98;;;22.80;55.50;;;;;;5013259;28;20494;-50
2022/07/14 00:50:49;;;;;;;5.13;2.25;;;22.80;55.20;;;;;;5006808;28;20038;-54
2022/07/14 00:53:19;;;;;;;4.50;2.28;;;22.80;55.00;;;;;;5013916;28;20084;-49
2022/07/14 00:55:47;;;;;;;5.28;2.35;;;22.80;55.10;;;;;;5011929;28;20037;-49
2022/07/14 00:58:17;;;;;;;7.65;2.50;;;22.80;54.90;;;;;;5025539;28;20057;-53
2022/07/14 01:00:47;;;;;;;5.35;1.73;;;22.80;55.10;;;;;;5010898;28;20097;-52
2022/07/14 01:03:13;;;;;;;8.88;2.28;;;22.70;55.10;;;;;;5007833;28;20141;-51
2022/07/14 01:05:41;;;;;;;5.13;2.33;;;22.80;55.30;;;;;;5006521;28;20050;-53
2022/07/14 01:08:08;;;;;;;8.07;2.75;;;22.70;55.30;;;;;;5007247;28;20041;-51
2022/07/14 01:10:35;;;;;;;4.78;2.00;;;22.70;55.40;;;;;;5002594;28;20096;-52
2022/07/14 01:13:06;;;;;;;5.80;1.88;;;22.70;55.40;;;;;;5019889;28;20041;-50
2022/07/14 01:15:35;;;;;;;8.45;2.08;;;22.70;55.70;;;;;;5012641;28;20041;-49
2022/07/14 01:18:03;;;;;;;4.43;1.65;;;22.60;55.50;;;;;;5011089;28;20046;-52
2022/07/14 01:20:30;;;;;;;6.32;2.13;;;22.60;55.60;;;;;;5000458;28;20046;-52
2022/07/14 01:22:57;;;;;;;4.68;1.85;;;22.60;55.50;;;;;;5016434;28;20054;-49
2022/07/14 01:25:27;;;;;;;7.20;2.25;;;22.60;55.80;;;;;;4993295;28;20124;-49
2022/07/14 01:27:54;;;;;;;4.25;1.90;;;22.70;55.90;;;;;;5008029;28;20049;-52
2022/07/14 01:30:21;;;;;;;6.20;1.92;;;22.60;55.70;;;;;;5020371;28;20042;-51
2022/07/14 01:32:48;;;;;;;9.85;2.55;;;22.60;55.70;;;;;;5003646;28;20041;-53
2022/07/14 01:35:15;;;;;;;8.07;2.00;;;22.50;55.70;;;;;;5013010;28;20042;-49
2022/07/14 01:37:41;;;;;;;5.13;2.35;;;22.60;55.80;;;;;;5006115;28;20553;-53
2022/07/14 01:40:11;;;;;;;7.70;2.40;;;22.60;55.80;;;;;;5018275;28;20166;-52
2022/07/14 01:42:40;;;;;;;8.02;2.13;;;22.50;55.80;;;;;;5003128;28;20050;-53
2022/07/14 01:45:14;;;;;;;4.80;2.00;;;22.50;56.60;;;;;;5011731;28;20418;-54
2022/07/14 01:47:42;;;;;;;3.35;1.70;;;22.50;56.60;;;;;;4980900;28;20297;-53
2022/07/14 01:50:09;;;;;;;5.60;1.80;;;22.50;56.20;;;;;;5018610;28;20064;-52
2022/07/14 01:52:39;;;;;;;7.20;1.95;;;22.50;56.20;;;;;;5027719;28;20123;-52
2022/07/14 01:55:06;;;;;;;6.88;2.33;;;22.40;56.20;;;;;;5000914;28;20057;-50
2022/07/14 01:57:34;;;;;;;4.53;1.80;;;22.50;56.40;;;;;;5016034;28;20077;-52
2022/07/14 02:00:01;;;;;;;7.35;2.17;;;22.40;56.40;;;;;;5018197;28;20487;-52
2022/07/14 02:02:33;;;;;;;5.07;2.00;;;22.40;56.50;;;;;;5004691;28;20698;-50
2022/07/14 02:05:00;;;;;;;5.50;2.17;;;22.30;56.40;;;;;;5017715;28;20396;-48
2022/07/14 02:07:30;;;;;;;6.22;2.40;;;22.30;56.50;;;;;;5002687;28;20038;-53
2022/07/14 02:12:54;;;;;;;7.85;2.67;;;22.30;56.70;;;;;;5001480;28;20574;-52
2022/07/14 02:15:21;;;;;;;4.32;1.83;;;22.30;56.60;;;;;;5013933;28;20053;-51
2022/07/14 02:17:52;;;;;;;4.35;2.03;;;22.30;56.70;;;;;;5021883;28;20497;-50
2022/07/14 02:20:21;;;;;;;7.03;1.83;;;22.20;56.70;;;;;;5011640;28;20077;-49
2022/07/14 02:22:51;;;;;;;5.35;2.28;;;22.20;56.50;;;;;;5005276;28;20046;-54
2022/07/14 02:25:17;;;;;;;8.98;2.45;;;22.20;56.60;;;;;;5018603;28;20034;-53
2022/07/14 02:27:44;;;;;;;4.95;1.80;;;22.20;56.70;;;;;;5002723;28;20069;-50
2022/07/14 02:30:13;;;;;;;6.70;3.03;;;22.10;56.80;;;;;;5010179;28;20136;-50
2022/07/14 02:32:42;;;;;;;6.22;2.28;;;22.10;56.90;;;;;;5014968;28;20415;-49
2022/07/14 02:35:10;;;;;;;6.53;2.05;;;22.10;57.00;;;;;;4999499;28;20050;-55
2022/07/14 02:37:37;;;;;;;4.47;1.98;;;22.10;57.00;;;;;;5001584;28;20042;-50
2022/07/14 02:40:05;;;;;;;10.40;2.50;;;22.20;57.00;;;;;;5024210;28;20115;-50
2022/07/14 02:42:34;;;;;;;4.30;1.90;;;22.10;57.00;;;;;;5007175;28;20049;-49
2022/07/14 02:45:01;;;;;;;5.50;2.28;;;22.10;57.20;;;;;;4998103;28;20241;-49
2022/07/14 02:47:33;;;;;;;6.05;1.90;;;22.10;57.30;;;;;;5018896;28;20048;-50
2022/07/14 02:50:03;;;;;;;5.13;2.10;;;22.00;57.20;;;;;;5011666;28;20045;-50
2022/07/14 02:52:30;;;;;;;5.00;1.88;;;22.00;57.10;;;;;;4993047;28;20043;-51
2022/07/14 02:54:57;;;;;;;4.32;1.63;;;22.00;57.20;;;;;;4996326;28;20041;-53
2022/07/14 02:57:26;;;;;;;7.28;2.80;;;22.00;57.20;;;;;;5001532;28;20625;-49
2022/07/14 02:59:56;;;;;;;7.95;2.70;;;22.00;57.10;;;;;;5026081;28;20133;-53
2022/07/14 03:02:22;;;;;;;5.45;2.88;;;22.00;57.20;;;;;;5013976;28;20552;-48
2022/07/14 03:04:52;;;;;;;8.50;2.13;;;21.90;57.20;;;;;;5015550;28;20560;-53
2022/07/14 03:07:20;;;;;;;5.00;2.30;;;22.00;57.50;;;;;;5001907;28;20099;-52
2022/07/14 03:09:50;;;;;;;8.40;2.40;;;21.90;57.20;;;;;;5026392;28;20045;-54
2022/07/14 03:12:18;;;;;;;6.78;2.13;;;21.90;57.20;;;;;;4994076;28;20034;-50
2022/07/14 03:14:47;;;;;;;7.93;2.78;;;21.90;57.20;;;;;;5017978;28;20041;-48
2022/07/14 03:17:24;;;;;;;6.70;2.25;;;21.90;57.30;;;;;;5003731;28;20061;-49
2022/07/14 03:19:51;;;;;;;5.07;2.15;;;21.80;57.40;;;;;;5019772;28;20567;-50
2022/07/14 03:22:25;;;;;;;6.93;2.97;;;21.80;57.20;;;;;;4998479;28;20502;-50
2022/07/14 03:24:52;;;;;;;9.93;2.90;;;21.70;57.30;;;;;;5016003;28;20129;-53
2022/07/14 03:27:19;;;;;;;5.72;2.33;;;21.70;57.40;;;;;;5006869;28;20129;-52
2022/07/14 03:29:46;;;;;;;5.05;2.50;;;21.70;57.50;;;;;;4995846;28;20026;-52
2022/07/14 03:32:15;;;;;;;6.50;2.30;;;21.60;57.60;;;;;;5000514;28;20523;-53
2022/07/14 03:34:44;;;;;;;7.38;2.60;;;21.60;57.70;;;;;;5003055;28;20096;-53
2022/07/14 03:37:12;;;;;;;5.90;2.38;;;21.50;57.60;;;;;;5026383;28;20053;-52
2022/07/14 03:39:48;;;;;;;6.65;3.47;;;21.50;57.80;;;;;;4996222;28;20050;-50
2022/07/14 03:42:15;;;;;;;8.25;2.88;;;21.50;57.80;;;;;;5017499;28;20046;-52
2022/07/14 03:44:46;;;;;;;5.88;2.30;;;21.50;58.00;;;;;;5010194;28;20100;-53
2022/07/14 03:47:15;;;;;;;8.20;3.33;;;21.40;58.20;;;;;;4996895;28;20093;-51
2022/07/14 03:49:46;;;;;;;8.02;2.40;;;21.50;58.30;;;;;;4998505;28;20038;-52
2022/07/14 03:52:20;;;;;;;10.65;2.75;;;21.40;58.30;;;;;;5019125;28;20039;-50
2022/07/14 03:54:49;;;;;;;6.57;2.28;;;21.40;58.30;;;;;;5005963;28;20046;-53
2022/07/14 03:57:19;;;;;;;5.50;2.20;;;21.40;58.40;;;;;;5005274;28;20046;-54
2022/07/14 03:59:46;;;;;;;6.95;2.20;;;21.40;58.30;;;;;;4989685;28;20046;-52
2022/07/14 04:02:15;;;;;;;9.02;2.50;;;21.40;58.30;;;;;;5001003;28;20464;-56
2022/07/14 04:04:49;;;;;;;6.32;3.30;;;21.40;58.40;;;;;;5008581;28;20096;-50
2022/07/14 04:07:21;;;;;;;8.77;3.08;;;21.40;58.50;;;;;;4998205;28;20380;-51
2022/07/14 04:09:49;;;;;;;8.32;2.63;;;21.40;58.30;;;;;;4992458;28;20043;-54
2022/07/14 04:12:18;;;;;;;5.88;2.67;;;21.40;58.20;;;;;;5017726;28;20034;-49
2022/07/14 04:14:50;;;;;;;8.27;3.08;;;21.30;58.20;;;;;;5010170;28;20065;-49
2022/07/14 04:17:19;;;;;;;6.28;3.78;;;21.30;58.20;;;;;;4998521;28;20060;-49
2022/07/14 04:19:47;;;;;;;10.48;5.18;;;21.20;58.40;;;;;;4999640;28;20064;-52
2022/07/14 04:22:14;;;;;;;7.53;2.85;;;21.20;58.30;;;;;;5010062;28;20053;-51
2022/07/14 04:25:07;;;;;;;8.65;2.60;;;21.20;58.50;;;;;;4976962;28;20046;-53
2022/07/14 04:27:34;;;;;;;4.35;2.92;;;21.10;58.60;;;;;;5004363;28;20541;-48
2022/07/14 04:30:01;;;;;;;9.57;3.45;;;21.10;58.60;;;;;;4998011;28;20044;-53
2022/07/14 04:32:32;;;;;;;5.97;2.80;;;21.00;58.80;;;;;;5001388;28;20543;-53
2022/07/14 04:35:03;;;;;;;6.82;2.75;;;20.90;58.80;;;;;;5006396;28;20046;-51
2022/07/14 04:37:34;;;;;;;5.05;2.72;;;20.90;59.00;;;;;;5003666;28;20138;-53
2022/07/14 04:40:07;;;;;;;5.95;2.80;;;20.80;59.00;;;;;;5002127;28;20042;-52
2022/07/14 04:42:34;;;;;;;5.88;2.75;;;20.80;59.20;;;;;;4990255;28;20048;-53
2022/07/14 04:45:02;;;;;;;6.55;2.83;;;20.80;59.30;;;;;;5009518;28;20074;-49
2022/07/14 04:47:28;;;;;;;8.85;2.72;;;20.70;59.40;;;;;;5000802;28;20065;-51
2022/07/14 04:52:49;;;;;;;5.68;2.58;;;20.60;59.70;;;;;;5009049;28;20065;-53
2022/07/14 04:55:51;;;;;;;9.13;3.22;;;20.60;60.00;;;;;;4957626;28;20050;-49
2022/07/14 04:58:38;;;;;;;6.13;3.03;;;20.60;59.90;;;;;;5010383;28;20475;-50
2022/07/14 05:01:05;;;;;;;8.57;3.97;;;20.60;60.10;;;;;;5009366;28;20136;-49
2022/07/14 05:03:40;;;;;;;8.32;3.20;;;20.60;60.30;;;;;;5008307;28;20138;-53
2022/07/14 05:06:11;;;;;;;8.68;3.10;;;20.60;60.50;;;;;;5003082;28;20051;-49
2022/07/14 05:08:38;;;;;;;7.30;3.28;;;20.60;60.50;;;;;;5020914;28;20038;-47
2022/07/14 05:11:06;;;;;;;6.95;3.33;;;20.60;60.70;;;;;;5012446;28;20042;-53
2022/07/14 05:13:34;;;;;;;6.65;3.40;;;20.60;61.30;;;;;;5013944;28;20038;-51
2022/07/14 05:16:03;;;;;;;7.93;3.63;;;20.70;61.30;;;;;;5017470;28;20566;-49
2022/07/14 05:18:30;;;;;;;7.15;3.10;;;20.70;60.50;;;;;;5006005;28;20042;-53
2022/07/14 05:20:57;;;;;;;10.70;4.75;;;20.70;60.50;;;;;;5022212;28;20076;-51
2022/07/14 05:23:28;;;;;;;8.00;3.08;;;20.80;60.40;;;;;;5010290;28;20047;-47
2022/07/14 05:25:55;;;;;;;8.80;3.42;;;20.80;60.30;;;;;;4999152;28;20076;-52
2022/07/14 05:28:22;;;;;;;10.93;3.60;;;20.80;60.30;;;;;;5020454;28;20073;-48
2022/07/14 05:30:58;;;;;;;10.05;3.97;;;20.80;60.30;;;;;;5011401;28;20104;-52
2022/07/14 05:33:33;;;;;;;9.23;3.83;;;20.90;60.50;;;;;;5012566;28;20050;-48
2022/07/14 05:36:01;;;;;;;10.07;3.50;;;20.90;60.00;;;;;;5017501;28;20042;-53
2022/07/14 05:38:28;;;;;;;9.10;3.13;;;20.90;60.20;;;;;;5013464;28;20499;-47
2022/07/14 05:40:55;;;;;;;7.38;3.20;;;20.90;60.20;;;;;;5004627;28;20057;-49
2022/07/14 05:43:22;;;;;;;6.13;3.50;;;20.90;60.20;;;;;;5015457;28;20133;-52
2022/07/14 05:46:01;;;;;;;8.50;2.95;;;21.00;60.30;;;;;;5000283;28;20104;-53
2022/07/14 05:48:31;;;;;;;8.60;3.28;;;21.00;60.30;;;;;;5028679;28;20518;-48
2022/07/14 05:51:05;;;;;;;7.85;2.63;;;21.10;60.20;;;;;;5003954;28;20429;-50
2022/07/14 05:53:35;;;;;;;8.95;2.90;;;21.10;60.20;;;;;;5005678;28;20052;-50
2022/07/14 05:56:04;;;;;;;11.38;3.50;;;21.10;59.90;;;;;;5009170;28;20053;-52
2022/07/14 05:58:31;;;;;;;8.48;3.70;;;21.20;60.20;;;;;;5024640;28;20046;-48
2022/07/14 06:01:02;;;;;;;7.68;2.97;;;21.30;59.80;;;;;;5010543;28;20072;-53
2022/07/14 06:03:30;;;;;;;9.82;3.15;;;21.40;59.80;;;;;;5021305;28;20049;-49
2022/07/14 06:06:06;;;;;;;9.05;3.13;;;21.40;59.30;;;;;;5006799;28;20042;-50
2022/07/14 06:08:33;;;;;;;6.22;3.10;;;21.50;59.30;;;;;;5020644;28;20073;-49
2022/07/14 06:11:01;;;;;;;6.53;2.78;;;21.50;59.10;;;;;;5007436;28;20038;-53
2022/07/14 06:13:30;;;;;;;9.38;2.80;;;21.50;59.10;;;;;;5004458;28;20133;-48
2022/07/14 06:16:00;;;;;;;8.70;2.80;;;21.60;59.20;;;;;;5027919;28;20049;-50
2022/07/14 06:18:29;;;;;;;8.50;2.75;;;21.70;59.00;;;;;;5019103;28;20053;-51
2022/07/14 06:20:57;;;;;;;7.93;2.67;;;21.70;58.90;;;;;;5015465;28;20074;-50
2022/07/14 06:23:24;;;;;;;9.65;3.22;;;21.80;59.00;;;;;;4999489;28;20064;-51
2022/07/14 06:25:51;;;;;;;4.72;2.72;;;21.90;58.70;;;;;;4991768;28;20130;-53
2022/07/14 06:28:22;;;;;;;6.35;2.53;;;22.00;58.60;;;;;;4992465;28;20426;-53
2022/07/14 06:30:52;;;;;;;10.88;3.28;;;22.00;58.30;;;;;;5017055;28;20045;-51
2022/07/14 06:33:19;;;;;;;11.13;2.80;;;22.20;58.20;;;;;;5002552;28;20498;-52
2022/07/14 06:35:45;;;;;;;7.40;3.38;;;22.20;57.80;;;;;;5027028;28;20077;-46
2022/07/14 06:38:30;;;;;;;7.82;2.75;;;22.20;57.70;;;;;;5008359;28;20129;-48
2022/07/14 06:40:57;;;;;;;9.23;3.38;;;22.30;57.60;;;;;;5002796;28;20457;-52
2022/07/14 06:43:27;;;;;;;11.05;3.13;;;22.30;57.30;;;;;;5019627;28;20054;-52
2022/07/14 06:45:58;;;;;;;9.05;3.00;;;22.30;57.10;;;;;;5012044;28;20485;-52
2022/07/14 06:48:25;;;;;;;8.05;2.67;;;22.40;57.10;;;;;;5000847;28;20072;-49
2022/07/14 06:50:51;;;;;;;6.45;2.33;;;22.40;57.20;;;;;;5006354;28;20042;-52
2022/07/14 06:53:21;;;;;;;6.68;3.05;;;22.40;57.30;;;;;;5010328;28;20050;-48
2022/07/14 06:55:48;;;;;;;10.27;3.75;;;22.40;57.20;;;;;;5008099;28;20042;-51
2022/07/14 06:58:15;;;;;;;6.72;2.83;;;22.40;57.20;;;;;;5000010;28;20043;-53
2022/07/14 07:00:41;;;;;;;5.53;2.85;;;22.50;57.00;;;;;;5000113;28;20046;-50
2022/07/14 07:03:12;;;;;;;6.35;3.10;;;22.50;56.70;;;;;;5010264;28;20088;-52
2022/07/14 07:08:25;;;;;;;9.07;3.50;;;22.60;56.70;;;;;;4998248;28;20053;-52
2022/07/14 07:10:55;;;;;;;6.40;2.75;;;22.60;56.50;;;;;;5007675;28;20544;-53
2022/07/14 07:13:22;;;;;;;8.60;2.75;;;22.60;56.40;;;;;;5000531;28;20084;-53
2022/07/14 07:15:56;;;;;;;6.95;2.92;;;22.60;56.60;;;;;;4994693;28;20046;-53
2022/07/14 07:18:23;;;;;;;6.50;2.50;;;22.70;56.60;;;;;;5005531;28;20042;-53
2022/07/14 07:20:50;;;;;;;7.70;2.75;;;22.70;56.40;;;;;;5006038;28;20221;-49
2022/07/14 07:23:18;;;;;;;7.60;2.78;;;22.80;56.40;;;;;;4989778;28;20097;-52
2022/07/14 07:25:45;;;;;;;5.93;2.72;;;22.70;56.20;;;;;;4994466;28;20104;-48
2022/07/14 07:28:12;;;;;;;8.32;3.30;;;22.80;56.20;;;;;;4986607;28;20046;-51
2022/07/14 07:30:38;;;;;;;11.45;2.50;;;22.80;56.00;;;;;;4995830;28;20034;-50
2022/07/14 07:33:05;;;;;;;11.73;3.53;;;22.80;55.80;;;;;;4991130;28;20047;-52
2022/07/14 07:35:32;;;;;;;7.22;2.78;;;22.80;55.70;;;;;;4998949;28;20045;-48
2022/07/14 07:38:05;;;;;;;11.27;2.53;;;22.80;55.80;;;;;;5001137;28;20152;-49
2022/07/14 07:40:32;;;;;;;7.63;2.63;;;22.80;55.80;;;;;;5011217;28;20104;-52
2022/07/14 07:42:58;;;;;;;9.23;3.00;;;22.80;55.60;;;;;;4995810;28;20332;-53
2022/07/14 07:45:25;;;;;;;7.75;2.67;;;22.70;55.60;;;;;;5001003;28;20503;-51
2022/07/14 07:47:52;;;;;;;6.38;2.00;;;22.60;55.40;;;;;;5007549;28;20046;-51
2022/07/14 07:50:19;;;;;;;8.35;2.55;;;22.60;55.50;;;;;;5010797;28;20414;-53
2022/07/14 07:52:45;;;;;;;6.18;3.03;;;22.60;55.30;;;;;;4995970;28;20134;-47
2022/07/14 07:55:13;;;;;;;5.80;2.40;;;22.60;55.50;;;;;;4998107;28;20046;-51
2022/07/14 07:57:52;;;;;;;6.78;2.67;;;22.60;55.30;;;;;;5002804;28;20679;-52
2022/07/14 08:00:20;;;;;;;9.27;2.78;;;22.60;55.60;;;;;;5010909;28;20079;-52
2022/07/14 08:02:49;;;;;;;7.60;2.65;;;22.60;54.90;;;;;;4994784;28;20105;-51
2022/07/14 08:05:18;;;;;;;5.57;2.15;;;22.70;54.40;;;;;;4997674;28;20521;-49
2022/07/14 08:08:07;;;;;;;6.50;1.85;;;22.60;53.60;;;;;;4999135;28;20053;-49
2022/07/14 08:10:34;;;;;;;10.25;2.72;;;22.60;53.30;;;;;;4991136;28;20512;-53
2022/07/14 08:13:01;;;;;;;11.27;2.22;;;22.70;53.00;;;;;;4990612;28;20050;-51
2022/07/14 08:15:27;;;;;;;8.07;2.08;;;22.60;53.10;;;;;;4993877;28;20037;-53
2022/07/14 08:17:54;;;;;;;7.90;2.10;;;22.70;53.70;;;;;;4989701;28;20043;-53
2022/07/14 08:20:21;;;;;;;6.65;2.17;;;22.70;53.40;;;;;;4989239;28;20057;-53
2022/07/14 08:22:48;;;;;;;9.40;2.15;;;22.70;53.50;;;;;;4989170;28;20043;-50
2022/07/14 08:25:15;;;;;;;5.57;2.30;;;22.70;53.30;;;;;;4996920;28;20561;-53
2022/07/14 08:27:41;;;;;;;8.75;2.20;;;22.80;53.00;;;;;;5002428;28;20096;-52
2022/07/14 08:30:08;;;;;;;8.80;1.77;;;22.90;52.70;;;;;;5005882;28;20046;-49
2022/07/14 08:32:46;;;;;;;5.55;1.88;;;22.90;52.80;;;;;;5017742;28;20046;-49
2022/07/14 08:35:15;;;;;;;4.50;1.70;;;22.90;52.50;;;;;;5002539;28;20525;-49
2022/07/14 08:37:42;;;;;;;6.57;2.10;;;22.90;52.60;;;;;;4994925;28;20057;-49
2022/07/14 08:40:14;;;;;;;6.63;1.70;;;23.00;53.00;;;;;;4993297;28;20038;-50
2022/07/14 08:42:47;;;;;;;8.55;2.53;;;23.10;52.30;;;;;;5017666;28;20057;-49
2022/07/14 08:45:17;;;;;;;8.95;1.52;;;23.10;52.40;;;;;;5005404;28;20053;-50
2022/07/14 08:47:45;;;;;;;5.03;1.30;;;23.30;51.80;;;;;;5014266;28;20041;-49
2022/07/14 08:50:14;;;;;;;4.05;1.40;;;23.40;50.90;;;;;;5002388;28;20039;-50
2022/07/14 08:52:46;;;;;;;6.75;2.08;;;23.40;50.00;;;;;;4998213;28;20038;-53
2022/07/14 08:55:15;;;;;;;3.97;1.50;;;23.50;50.20;;;;;;5005159;28;20042;-51
2022/07/14 08:57:42;;;;;;;6.20;1.33;;;23.50;49.10;;;;;;5006854;28;20042;-52
2022/07/14 09:00:17;;;;;;;5.45;1.63;;;23.60;48.70;;;;;;5006431;28;20055;-51
2022/07/14 09:02:55;;;;;;;4.70;1.02;;;23.60;48.60;;;;;;5006091;28;20049;-49
2022/07/14 09:05:43;;;;;;;2.90;1.20;;;23.60;47.10;;;;;;4984986;28;20047;-53
2022/07/14 09:08:12;;;;;;;4.35;1.30;;;23.60;48.20;;;;;;4989854;28;20470;-53
2022/07/14 09:10:41;;;;;;;3.85;1.30;;;23.60;48.20;;;;;;5001796;28;20544;-53
2022/07/14 09:13:31;;;;;;;3.25;1.55;;;23.60;48.40;;;;;;4999327;28;20511;-53
2022/07/14 09:16:19;;;;;;;3.80;0.93;;;23.70;47.90;;;;;;4999732;28;20380;-51
2022/07/14 09:19:08;;;;;;;4.18;0.90;;;23.80;47.30;;;;;;4993598;28;20148;-51
2022/07/14 09:21:37;;;;;;;5.78;1.65;;;23.80;46.40;;;;;;4987883;28;20045;-52
2022/07/14 09:24:08;;;;;;;4.97;1.17;;;23.80;46.10;;;;;;4993531;28;20116;-48
2022/07/14 09:26:49;;;;;;;4.33;1.07;;;23.80;45.60;;;;;;4992224;28;20042;-52
2022/07/14 09:29:21;;;;;;;4.75;1.30;;;23.80;46.10;;;;;;4996856;28;20092;-53
2022/07/14 09:31:50;;;;;;;;;;;23.90;45.80;;;;;;5004372;28;20521;-53
2022/07/14 09:34:27;;;;;;;5.80;2.00;;;24.00;47.40;;;;;;4993142;28;20016;-53
2022/07/14 09:37:13;;;;;;;3.50;1.20;;;24.10;46.80;;;;;;5001565;28;20494;-50
2022/07/14 09:39:54;;;;;;;7.40;1.48;;;24.20;45.80;;;;;;5007921;28;20050;-53
2022/07/14 09:42:21;;;;;;;5.20;1.50;;;24.30;45.60;;;;;;5027454;28;20045;-53
2022/07/14 09:44:48;;;;;;;5.25;0.90;;;24.40;46.20;;;;;;5001696;28;20042;-50
2022/07/14 09:47:14;;;;;;;2.00;0.88;;;24.50;45.30;;;;;;5004029;28;20054;-53
2022/07/14 09:49:41;;;;;;;4.53;1.98;;;24.50;45.60;;;;;;4995904;28;20113;-50
2022/07/14 09:52:32;;;;;;;5.72;1.50;;;24.50;45.30;;;;;;4986294;28;20088;-50
2022/07/14 09:54:59;;;;;;;4.22;1.25;;;24.50;45.10;;;;;;5010109;28;20093;-53
2022/07/14 09:57:26;;;;;;;5.03;1.63;;;24.50;45.50;;;;;;5003040;28;20087;-53
2022/07/14 09:59:56;;;;;;;2.55;1.10;;;24.50;44.20;;;;;;5009385;28;20046;-53
2022/07/14 10:02:26;;;;;;;7.80;1.35;;;24.60;43.20;;;;;;5012626;28;20414;-50
2022/07/14 10:05:02;;;;;;;3.05;0.88;;;24.50;43.50;;;;;;4995319;28;20042;-52
2022/07/14 10:07:36;;;;;;;2.33;0.95;;;24.50;43.10;;;;;;5014394;28;20121;-48
2022/07/14 10:10:07;;;;;;;1.77;0.80;;;24.50;42.20;;;;;;5010466;28;20525;-53
2022/07/14 10:12:36;;;;;;;3.08;0.90;;;24.60;42.40;;;;;;4997856;28;20547;-53
2022/07/14 10:15:09;;;;;;;4.97;1.40;;;24.60;42.40;;;;;;5003911;28;20045;-52
2022/07/14 10:17:37;;;;;;;4.03;1.48;;;24.60;42.20;;;;;;5005749;28;20054;-50
2022/07/14 10:20:12;;;;;;;3.75;1.45;;;24.60;43.20;;;;;;5003459;28;20042;-49
2022/07/14 10:22:40;;;;;;;4.85;1.42;;;24.60;43.60;;;;;;4998067;28;20054;-53
2022/07/14 10:25:09;;;;;;;2.55;1.10;;;24.70;42.90;;;;;;4994366;28;20050;-50
2022/07/14 10:27:41;;;;;;;2.55;2.03;;;24.70;42.40;;;;;;4992572;28;20038;-49
2022/07/14 10:30:09;;;;;;;2.67;1.20;;;24.70;43.40;;;;;;4992205;28;20046;-49
2022/07/14 10:32:57;;;;;;;4.05;1.30;;;24.70;42.30;;;;;;4992435;28;20038;-51
2022/07/14 10:35:23;;;;;;;5.10;1.92;;;24.80;42.40;;;;;;4999995;28;20490;-51
2022/07/14 10:38:05;;;;;;;4.90;1.50;;;24.80;42.60;;;;;;5008428;28;20056;-50
2022/07/14 10:40:35;;;;;;;2.55;1.40;;;24.90;42.30;;;;;;4996903;28;20049;-53
2022/07/14 10:43:09;;;;;;;3.95;1.83;;;24.90;41.70;;;;;;4999968;28;20572;-52
2022/07/14 10:45:55;;;;;;;3.45;1.77;;;24.90;41.50;;;;;;4999755;28;20495;-53
2022/07/14 10:48:37;;;;;;;4.40;1.50;;;25.00;42.60;;;;;;4992144;28;20038;-51
2022/07/14 10:51:16;;;;;;;8.15;1.35;;;25.00;41.30;;;;;;4991951;28;20050;-52
2022/07/14 10:54:06;;;;;;;3.33;1.50;;;25.10;41.20;;;;;;4999598;28;20089;-53
2022/07/14 10:57:11;;;;;;;3.30;1.00;;;25.20;41.60;;;;;;4981757;28;20416;-52
2022/07/14 10:59:48;;;;;;;4.50;1.80;;;25.30;42.10;;;;;;4994760;28;20502;-53
2022/07/14 11:02:18;;;;;;;5.38;1.75;;;25.30;42.00;;;;;;5014769;22;20037;-51
2022/07/14 11:05:00;;;;;;;3.75;1.23;;;25.40;41.40;;;;;;5003947;28;20042;-51
2022/07/14 11:08:09;;;;;;;4.22;1.35;;;25.50;41.30;;;;;;4985939;28;20039;-49
2022/07/14 11:10:36;;;;;;;3.50;1.60;;;25.60;40.00;;;;;;4997688;28;20062;-49
2022/07/14 11:13:05;;;;;;;3.40;1.67;;;25.60;39.50;;;;;;4999174;28;20099;-50
2022/07/14 11:15:39;;;;;;;1.58;1.40;;;25.80;39.00;;;;;;5004549;28;20053;-49
2022/07/14 11:18:18;;;;;;;4.10;1.48;;;26.00;38.00;;;;;;4991708;28;20058;-54
2022/07/14 11:21:07;;;;;;;2.83;1.30;;;26.10;37.80;;;;;;5003457;28;20128;-50
2022/07/14 11:23:53;;;;;;;5.55;1.27;;;26.40;38.50;;;;;;4994296;28;20165;-49
2022/07/14 11:26:44;;;;;;;3.00;1.52;;;26.60;38.40;;;;;;4991851;28;20050;-49
2022/07/14 11:29:15;;;;;;;5.15;1.27;;;26.90;38.50;;;;;;4996230;28;20045;-52
2022/07/14 11:31:46;;;;;;;2.85;1.15;;;27.10;37.90;;;;;;5003644;28;20491;-50
2022/07/14 11:37:12;;;;;;;3.38;1.10;;;27.30;37.00;;;;;;4999597;28;20039;-49
2022/07/14 11:39:58;;;;;;;1.48;0.82;;;27.50;37.30;;;;;;5005033;28;20042;-49
2022/07/14 11:42:25;;;;;;;3.22;1.40;;;27.60;37.40;;;;;;5001420;28;20538;-49
2022/07/14 11:44:52;;;;;;;2.47;1.20;;;27.60;36.80;;;;;;5011145;28;20038;-52
2022/07/14 11:47:21;;;;;;;3.72;1.50;;;27.70;36.70;;;;;;4996184;28;20038;-51
2022/07/14 11:49:51;;;;;;;1.95;1.40;;;27.60;36.50;;;;;;5003962;28;20101;-50
2022/07/14 11:52:29;;;;;;;4.05;1.30;;;27.60;36.20;;;;;;5025731;28;20510;-49
2022/07/14 11:54:58;;;;;;;3.08;1.20;;;27.60;36.30;;;;;;5005656;28;20042;-51
2022/07/14 11:57:25;;;;;;;4.07;1.42;;;27.60;36.20;;;;;;4995093;28;20049;-52
2022/07/14 11:59:53;;;;;;;4.95;1.38;;;27.60;35.90;;;;;;5010713;28;20046;-52
2022/07/14 12:02:21;;;;;;;3.22;1.35;;;27.60;36.20;;;;;;4994450;28;20045;-51
2022/07/14 12:04:53;;;;;;;5.60;1.75;;;27.60;36.30;;;;;;5013169;28;20506;-53
2022/07/14 12:07:21;;;;;;;2.92;1.30;;;27.70;36.10;;;;;;5006036;28;20045;-51
2022/07/14 12:09:49;;;;;;;5.60;1.27;;;27.70;36.40;;;;;;5006567;28;20065;-52
2022/07/14 12:12:18;;;;;;;4.00;1.48;;;27.80;36.30;;;;;;5008865;28;20030;-50
2022/07/14 12:14:52;;;;;;;4.75;1.40;;;27.70;35.80;;;;;;5004626;28;20509;-49
2022/07/14 12:17:20;;;;;;;2.08;0.98;;;27.70;35.60;;;;;;5002167;28;20034;-52
2022/07/14 12:19:49;;;;;;;3.83;1.20;;;27.70;35.90;;;;;;5006352;28;20037;-51
2022/07/14 12:22:18;;;;;;;3.90;1.15;;;27.80;36.10;;;;;;5013435;28;20037;-54
2022/07/14 12:24:45;;;;;;;3.40;1.20;;;27.80;35.70;;;;;;5004860;28;20037;-53
2022/07/14 12:27:12;;;;;;;4.57;1.65;;;27.80;35.60;;;;;;5005535;28;20042;-53
2022/07/14 12:29:50;;;;;;;2.45;1.33;;;27.90;35.70;;;;;;5014636;28;20041;-53
2022/07/14 12:32:19;;;;;;;3.33;1.00;;;28.10;35.40;;;;;;4997205;28;20034;-53
2022/07/14 12:34:46;;;;;;;2.78;1.02;;;28.20;35.40;;;;;;5000827;28;20495;-50
2022/07/14 12:37:14;;;;;;;5.00;1.75;;;28.30;35.10;;;;;;5003793;28;20084;-52
2022/07/14 12:39:41;;;;;;;3.50;0.95;;;28.40;34.80;;;;;;4996700;28;20056;-49
2022/07/14 12:42:08;;;;;;;2.80;1.08;;;28.50;34.60;;;;;;4993955;28;20074;-51
2022/07/14 12:44:56;;;;;;;2.78;1.30;;;28.60;34.70;;;;;;4994667;28;20047;-50
2022/07/14 12:47:23;;;;;;;1.63;1.13;;;28.70;34.20;;;;;;4994444;28;20058;-50
2022/07/14 12:49:50;;;;;;;4.35;1.10;;;28.70;34.30;;;;;;4993714;28;20051;-55
2022/07/14 12:52:17;;;;;;;1.10;0.90;;;28.80;34.10;;;;;;4996999;28;20092;-53
2022/07/14 12:54:47;;;;;;;4.03;0.98;;;28.90;34.00;;;;;;5006490;28;20045;-52
2022/07/14 12:57:35;;;;;;;3.53;1.17;;;28.90;34.20;;;;;;4996109;28;20451;-52
2022/07/14 13:00:12;;;;;;;2.38;1.13;;;29.10;34.10;;;;;;4994173;28;20065;-52
2022/07/14 13:02:44;;;;;;;;;;;29.20;33.50;;;;;;5007096;28;20046;-51
2022/07/14 13:05:10;;;;;;;2.70;0.82;;;29.30;34.90;;;;;;5005774;28;20349;-51
2022/07/14 13:07:39;;;;;;;2.22;1.30;;;29.40;34.20;;;;;;5014049;28;20038;-55
2022/07/14 13:10:18;;;;;;;3.22;1.45;;;29.50;33.20;;;;;;5008140;28;20101;-50
2022/07/14 13:12:55;;;;;;;4.40;1.10;;;29.50;33.10;;;;;;4995499;28;20041;-53
2022/07/14 13:15:27;;;;;;;3.40;0.95;;;29.60;33.40;;;;;;4994245;28;20045;-53
2022/07/14 13:18:05;;;;;;;6.47;1.27;;;29.70;33.10;;;;;;4996593;28;20065;-50